createdAt,value
2019-03-24T00:00:36.131Z,101.33
2019-03-24T00:03:03.554Z,109.20
2019-03-24T00:05:30.800Z,112.10
2019-03-24T00:07:57.081Z,120.70
2019-03-24T00:10:23.700Z,117.62
2019-03-24T00:12:49.985Z,116.80
2019-03-24T00:15:25.801Z,119.22
2019-03-24T00:17:44.806Z,125.20
2019-03-24T00:20:11.819Z,120.17
2019-03-24T00:22:38.491Z,122.47
2019-03-24T00:25:06.738Z,117.00
2019-03-24T00:27:33.142Z,123.28
2019-03-24T00:29:59.453Z,106.17
2019-03-24T00:32:25.988Z,111.20
2019-03-24T00:34:52.278Z,100.07
2019-03-24T00:37:18.567Z,103.38
2019-03-24T00:39:45.157Z,103.67
2019-03-24T00:42:11.679Z,97.10
2019-03-24T00:44:38.034Z,105.05
2019-03-24T00:47:04.535Z,105.12
2019-03-24T00:49:30.955Z,118.17
2019-03-24T00:51:57.480Z,114.00
2019-03-24T00:54:23.799Z,100.07
2019-03-24T00:56:50.086Z,84.83
2019-03-24T00:59:16.524Z,83.27
2019-03-24T01:01:42.907Z,84.77
2019-03-24T01:04:09.249Z,77.70
2019-03-24T01:06:35.838Z,99.62
2019-03-24T01:09:05.558Z,91.92
2019-03-24T01:11:33.700Z,77.10
2019-03-24T01:14:00.133Z,78.00
2019-03-24T01:16:26.981Z,80.05
2019-03-24T01:18:53.600Z,76.07
2019-03-24T01:21:20.041Z,87.60
2019-03-24T01:23:46.432Z,139.32
2019-03-24T01:26:12.984Z,185.63
2019-03-24T01:28:39.377Z,177.65
2019-03-24T01:31:05.982Z,183.50
2019-03-24T01:33:33.439Z,147.50
2019-03-24T01:35:59.994Z,148.90
2019-03-24T01:38:26.386Z,147.25
2019-03-24T01:40:52.931Z,144.02
2019-03-24T01:43:19.321Z,151.10
2019-03-24T01:45:45.698Z,128.20
2019-03-24T01:48:12.200Z,120.80
2019-03-24T01:50:38.495Z,125.15
2019-03-24T01:53:05.005Z,118.15
2019-03-24T01:55:31.519Z,118.37
2019-03-24T01:57:58.009Z,114.62
2019-03-24T02:00:24.522Z,105.97
2019-03-24T02:02:51.123Z,99.20
2019-03-24T02:05:17.887Z,120.60
2019-03-24T02:07:44.342Z,132.07
2019-03-24T02:10:11.871Z,138.52
2019-03-24T02:12:38.521Z,156.30
2019-03-24T02:15:06.647Z,157.60
2019-03-24T02:17:32.932Z,165.95
2019-03-24T02:19:59.359Z,159.48
2019-03-24T02:22:25.850Z,165.35
2019-03-24T02:24:52.260Z,163.70
2019-03-24T02:27:18.786Z,157.75
2019-03-24T02:29:45.290Z,163.55
2019-03-24T02:32:11.827Z,165.05
2019-03-24T02:34:38.425Z,155.70
2019-03-24T02:37:04.877Z,153.38
2019-03-24T02:39:31.377Z,165.70
2019-03-24T02:41:58.199Z,149.07
2019-03-24T02:44:24.692Z,141.07
2019-03-24T02:46:51.343Z,142.30
2019-03-24T02:49:17.832Z,147.82
2019-03-24T02:51:44.247Z,139.82
2019-03-24T02:54:10.752Z,135.52
2019-03-24T02:56:37.465Z,135.05
2019-03-24T02:59:04.348Z,141.70
2019-03-24T03:01:31.511Z,130.52
2019-03-24T03:03:58.017Z,138.32
2019-03-24T03:06:24.547Z,136.07
2019-03-24T03:08:51.329Z,134.15
2019-03-24T03:11:17.909Z,122.65
2019-03-24T03:13:44.444Z,123.70
2019-03-24T03:16:11.034Z,125.82
2019-03-24T03:18:37.637Z,124.22
2019-03-24T03:21:04.248Z,120.42
2019-03-24T03:23:31.077Z,123.80
2019-03-24T03:25:58.571Z,119.72
2019-03-24T03:28:25.074Z,128.75
2019-03-24T03:30:51.682Z,121.40
2019-03-24T03:33:18.728Z,118.37
2019-03-24T03:35:45.336Z,118.13
2019-03-24T03:38:11.842Z,116.22
2019-03-24T03:40:38.562Z,112.15
2019-03-24T03:43:05.813Z,110.95
2019-03-24T03:45:32.328Z,113.47
2019-03-24T03:47:58.683Z,112.05
2019-03-24T03:50:25.197Z,115.80
2019-03-24T03:52:52.146Z,108.50
2019-03-24T03:55:18.845Z,115.67
2019-03-24T03:57:45.251Z,108.12
2019-03-24T04:00:12.282Z,109.92
2019-03-24T04:02:38.858Z,117.33
2019-03-24T04:05:05.398Z,109.42
2019-03-24T04:07:31.867Z,112.92
2019-03-24T04:09:58.278Z,108.07
2019-03-24T04:12:25.044Z,107.55
2019-03-24T04:14:51.437Z,107.75
2019-03-24T04:17:18.148Z,114.35
2019-03-24T04:19:44.707Z,112.08
2019-03-24T04:22:11.552Z,106.90
2019-03-24T04:24:37.950Z,109.40
2019-03-24T04:27:04.683Z,103.58
2019-03-24T04:29:31.190Z,92.30
2019-03-24T04:31:57.551Z,93.80
2019-03-24T04:34:24.018Z,95.80
2019-03-24T04:36:50.512Z,87.55
2019-03-24T04:39:17.191Z,80.60
2019-03-24T04:41:43.599Z,79.00
2019-03-24T04:44:09.953Z,74.17
2019-03-24T04:46:36.443Z,72.82
2019-03-24T04:49:02.990Z,71.97
2019-03-24T04:51:29.278Z,69.47
2019-03-24T04:53:55.968Z,67.12
2019-03-24T04:56:22.248Z,73.05
2019-03-24T04:58:48.893Z,79.20
2019-03-24T05:01:15.397Z,79.97
2019-03-24T05:03:41.863Z,87.72
2019-03-24T05:06:08.380Z,82.37
2019-03-24T05:08:34.983Z,94.97
2019-03-24T05:11:01.535Z,88.33
2019-03-24T05:13:27.958Z,83.78
2019-03-24T05:15:54.388Z,84.97
2019-03-24T05:18:20.891Z,84.10
2019-03-24T05:20:47.175Z,92.00
2019-03-24T05:23:13.790Z,86.02
2019-03-24T05:25:40.284Z,77.72
2019-03-24T05:28:06.610Z,73.17
2019-03-24T05:30:33.007Z,68.00
2019-03-24T05:32:59.479Z,67.90
2019-03-24T05:35:25.762Z,71.92
2019-03-24T05:37:52.154Z,67.08
2019-03-24T05:40:19.038Z,62.50
2019-03-24T05:42:45.453Z,62.08
2019-03-24T05:45:12.422Z,68.15
2019-03-24T05:47:38.970Z,62.43
2019-03-24T05:50:07.077Z,60.10
2019-03-24T05:52:33.607Z,61.70
2019-03-24T05:54:59.895Z,65.17
2019-03-24T05:57:26.539Z,66.17
2019-03-24T05:59:52.924Z,60.33
2019-03-24T06:02:19.431Z,63.50
2019-03-24T06:04:46.056Z,74.82
2019-03-24T06:07:13.087Z,58.65
2019-03-24T06:09:39.819Z,60.38
2019-03-24T06:12:06.311Z,55.65
2019-03-24T06:14:32.980Z,53.42
2019-03-24T06:16:59.367Z,55.30
2019-03-24T06:19:25.671Z,57.90
2019-03-24T06:21:52.280Z,51.83
2019-03-24T06:24:18.691Z,51.53
2019-03-24T06:26:45.194Z,49.42
2019-03-24T06:29:11.590Z,50.38
2019-03-24T06:31:38.225Z,56.00
2019-03-24T06:34:06.119Z,60.08
2019-03-24T06:36:32.546Z,66.60
2019-03-24T06:38:58.938Z,88.15
2019-03-24T06:41:25.503Z,75.40
2019-03-24T06:43:51.895Z,82.97
2019-03-24T06:46:18.297Z,90.00
2019-03-24T06:48:44.792Z,80.62
2019-03-24T06:51:11.502Z,61.53
2019-03-24T06:53:37.967Z,49.77
2019-03-24T06:56:04.539Z,61.08
2019-03-24T06:58:30.850Z,67.60
2019-03-24T07:00:57.231Z,71.85
2019-03-24T07:03:23.659Z,58.85
2019-03-24T07:05:50.053Z,59.05
2019-03-24T07:08:16.972Z,63.65
2019-03-24T07:10:43.391Z,59.88
2019-03-24T07:13:09.858Z,53.30
2019-03-24T07:15:36.343Z,51.08
2019-03-24T07:18:08.343Z,52.55
2019-03-24T07:20:31.390Z,51.98
2019-03-24T07:22:57.814Z,49.48
2019-03-24T07:25:24.360Z,60.33
2019-03-24T07:27:50.800Z,62.17
2019-03-24T07:30:18.487Z,63.78
2019-03-24T07:32:44.838Z,71.10
2019-03-24T07:35:11.534Z,64.32
2019-03-24T07:37:39.691Z,68.85
2019-03-24T07:40:07.899Z,65.65
2019-03-24T07:42:34.305Z,65.50
2019-03-24T07:45:01.078Z,85.67
2019-03-24T07:47:27.486Z,122.58
2019-03-24T07:49:53.919Z,84.70
2019-03-24T07:52:20.739Z,71.72
2019-03-24T07:54:47.175Z,69.10
2019-03-24T07:57:13.570Z,65.20
2019-03-24T07:59:40.336Z,69.62
2019-03-24T08:02:06.835Z,69.07
2019-03-24T08:04:33.531Z,72.45
2019-03-24T08:07:00.106Z,69.05
2019-03-24T08:09:26.405Z,65.28
2019-03-24T08:11:52.935Z,66.80
2019-03-24T08:14:19.620Z,64.15
2019-03-24T08:16:46.076Z,66.95
2019-03-24T08:19:12.528Z,67.50
2019-03-24T08:21:38.938Z,67.60
2019-03-24T08:24:05.714Z,74.32
2019-03-24T08:26:32.118Z,72.20
2019-03-24T08:28:58.887Z,67.87
2019-03-24T08:31:25.524Z,69.32
2019-03-24T08:33:52.284Z,72.70
2019-03-24T08:36:18.789Z,68.85
2019-03-24T08:38:45.342Z,66.22
2019-03-24T08:41:11.900Z,70.83
2019-03-24T08:43:38.347Z,65.32
2019-03-24T08:46:04.745Z,67.15
2019-03-24T08:48:40.456Z,64.53
2019-03-24T08:50:59.585Z,60.12
2019-03-24T08:53:25.944Z,66.10
2019-03-24T08:55:52.402Z,63.45
2019-03-24T08:58:19.052Z,61.98
2019-03-24T09:00:45.880Z,90.80
2019-03-24T09:03:12.305Z,78.35
2019-03-24T09:05:38.709Z,61.53
2019-03-24T09:08:05.257Z,59.42
2019-03-24T09:10:31.648Z,62.40
2019-03-24T09:12:58.289Z,60.23
2019-03-24T09:15:24.682Z,58.85
2019-03-24T09:17:51.446Z,57.05
2019-03-24T09:20:17.865Z,61.25
2019-03-24T09:22:44.235Z,56.42
2019-03-24T09:25:11.101Z,53.75
2019-03-24T09:27:37.516Z,56.75
2019-03-24T09:30:11.838Z,55.95
2019-03-24T09:32:38.429Z,52.40
2019-03-24T09:35:05.340Z,53.90
2019-03-24T09:37:32.118Z,54.20
2019-03-24T09:39:58.519Z,54.63
2019-03-24T09:42:24.959Z,57.48
2019-03-24T09:44:51.415Z,56.68
2019-03-24T09:47:17.985Z,53.20
2019-03-24T09:49:44.418Z,53.63
2019-03-24T09:52:10.871Z,59.42
2019-03-24T09:54:37.558Z,53.65
2019-03-24T09:57:04.162Z,56.50
2019-03-24T09:59:30.613Z,51.37
2019-03-24T10:01:56.995Z,54.70
2019-03-24T10:04:23.619Z,53.58
2019-03-24T10:06:50.262Z,50.85
2019-03-24T10:09:16.683Z,48.20
2019-03-24T10:11:43.083Z,38.02
2019-03-24T10:14:09.740Z,41.37
2019-03-24T10:16:36.143Z,43.00
2019-03-24T10:19:13.288Z,41.55
2019-03-24T10:21:31.099Z,43.87
2019-03-24T10:23:57.500Z,48.68
2019-03-24T10:26:24.049Z,44.85
2019-03-24T10:28:50.449Z,54.65
2019-03-24T10:31:16.933Z,51.70
2019-03-24T10:33:43.667Z,44.48
2019-03-24T10:36:10.246Z,46.18
2019-03-24T10:38:36.930Z,43.02
2019-03-24T10:41:03.476Z,46.15
2019-03-24T10:43:30.002Z,37.80
2019-03-24T10:45:56.577Z,40.03
2019-03-24T10:48:33.193Z,46.23
2019-03-24T10:50:51.313Z,34.75
2019-03-24T10:53:17.885Z,38.70
2019-03-24T10:55:44.650Z,37.73
2019-03-24T10:58:11.037Z,43.78
2019-03-24T11:00:42.645Z,47.67
2019-03-24T11:03:09.351Z,42.55
2019-03-24T11:05:35.990Z,44.58
2019-03-24T11:08:02.478Z,39.73
2019-03-24T11:10:28.895Z,34.58
2019-03-24T11:12:55.383Z,32.35
2019-03-24T11:15:22.335Z,38.60
2019-03-24T11:17:48.620Z,40.00
2019-03-24T11:20:15.167Z,38.90
2019-03-24T11:22:41.564Z,33.85
2019-03-24T11:25:09.173Z,38.75
2019-03-24T11:27:36.392Z,36.33
2019-03-24T11:30:10.946Z,37.95
2019-03-24T11:32:38.326Z,39.92
2019-03-24T11:35:06.134Z,40.35
2019-03-24T11:37:32.442Z,48.75
2019-03-24T11:39:58.971Z,36.83
2019-03-24T11:42:25.403Z,39.10
2019-03-24T11:44:51.900Z,40.23
2019-03-24T11:47:26.239Z,37.60
2019-03-24T11:49:49.074Z,40.60
2019-03-24T11:52:15.362Z,48.20
2019-03-24T11:54:41.683Z,44.65
2019-03-24T11:57:08.123Z,41.37
2019-03-24T11:59:34.434Z,46.98
2019-03-24T12:02:00.947Z,51.53
2019-03-24T12:04:27.383Z,44.85
2019-03-24T12:06:53.772Z,51.68
2019-03-24T12:09:20.449Z,43.33
2019-03-24T12:11:46.923Z,44.98
2019-03-24T12:14:13.217Z,45.10
2019-03-24T12:16:39.771Z,47.90
2019-03-24T12:19:06.289Z,45.00
2019-03-24T12:21:32.785Z,48.33
2019-03-24T12:23:59.104Z,44.93
2019-03-24T12:26:25.504Z,47.13
2019-03-24T12:28:52.051Z,44.77
2019-03-24T12:31:18.342Z,43.98
2019-03-24T12:33:44.760Z,46.80
2019-03-24T12:36:11.151Z,48.65
2019-03-24T12:38:38.051Z,47.08
2019-03-24T12:41:04.537Z,45.20
2019-03-24T12:43:30.822Z,52.08
2019-03-24T12:45:57.562Z,44.05
2019-03-24T12:48:24.343Z,46.02
2019-03-24T12:50:50.917Z,48.10
2019-03-24T12:53:17.716Z,49.18
2019-03-24T12:55:44.106Z,50.30
2019-03-24T12:58:10.846Z,50.03
2019-03-24T13:00:38.346Z,45.45
2019-03-24T13:03:05.560Z,50.20
2019-03-24T13:05:32.139Z,43.98
2019-03-24T13:08:10.718Z,43.28
2019-03-24T13:10:37.025Z,46.35
2019-03-24T13:13:03.410Z,53.05
2019-03-24T13:15:29.750Z,50.95
2019-03-24T13:17:56.033Z,44.77
2019-03-24T13:20:36.460Z,44.45
2019-03-24T13:22:50.854Z,45.63
2019-03-24T13:25:17.589Z,55.30
2019-03-24T13:27:43.995Z,44.03
2019-03-24T13:30:10.712Z,48.87
2019-03-24T13:32:37.033Z,47.15
2019-03-24T13:35:04.040Z,48.63
2019-03-24T13:37:30.566Z,45.00
2019-03-24T13:39:56.963Z,45.60
2019-03-24T13:42:23.537Z,47.58
2019-03-24T13:44:49.967Z,46.73
2019-03-24T13:47:16.504Z,46.23
2019-03-24T13:49:42.911Z,56.10
2019-03-24T13:52:09.332Z,54.75
2019-03-24T13:54:35.749Z,56.23
2019-03-24T13:57:02.115Z,53.87
2019-03-24T13:59:28.882Z,59.25
2019-03-24T14:01:55.313Z,66.75
2019-03-24T14:04:21.943Z,89.20
2019-03-24T14:06:48.462Z,64.17
2019-03-24T14:09:15.023Z,45.38
2019-03-24T14:11:41.423Z,62.13
2019-03-24T14:14:08.020Z,57.35
2019-03-24T14:16:34.826Z,86.30
2019-03-24T14:19:01.360Z,101.70
2019-03-24T14:21:27.983Z,102.60
2019-03-24T14:23:54.267Z,90.42
2019-03-24T14:26:20.591Z,129.35
2019-03-24T14:28:46.910Z,77.82
2019-03-24T14:31:13.217Z,118.33
2019-03-24T14:33:40.571Z,106.60
2019-03-24T14:36:07.004Z,110.70
2019-03-24T14:38:33.411Z,64.27
2019-03-24T14:40:59.750Z,59.90
2019-03-24T14:43:26.295Z,56.13
2019-03-24T14:45:52.809Z,47.00
2019-03-24T14:48:19.172Z,109.45
2019-03-24T14:50:54.569Z,218.22
2019-03-24T14:53:14.726Z,96.12
2019-03-24T14:55:41.121Z,64.62
2019-03-24T14:58:07.635Z,70.32
2019-03-24T15:00:41.706Z,103.38
2019-03-24T15:03:08.503Z,60.55
2019-03-24T15:05:35.491Z,66.67
2019-03-24T15:08:02.589Z,82.62
2019-03-24T15:10:29.593Z,79.15
2019-03-24T15:12:55.983Z,104.95
2019-03-24T15:15:22.420Z,80.70
2019-03-24T15:17:48.803Z,82.05
2019-03-24T15:20:15.150Z,111.17
2019-03-24T15:22:41.443Z,107.52
2019-03-24T15:25:08.187Z,82.50
2019-03-24T15:27:34.581Z,96.50
2019-03-24T15:30:01.517Z,87.92
2019-03-24T15:32:28.042Z,98.30
2019-03-24T15:34:54.399Z,92.85
2019-03-24T15:37:21.057Z,92.02
2019-03-24T15:39:47.464Z,70.83
2019-03-24T15:42:14.100Z,83.10
2019-03-24T15:44:40.379Z,65.95
2019-03-24T15:47:06.881Z,70.55
2019-03-24T15:49:33.212Z,81.45
2019-03-24T15:51:59.643Z,68.22
2019-03-24T15:54:26.050Z,70.83
2019-03-24T15:56:52.371Z,59.95
2019-03-24T15:59:18.886Z,72.70
2019-03-24T16:01:45.193Z,89.25
2019-03-24T16:04:11.735Z,80.40
2019-03-24T16:06:38.379Z,76.50
2019-03-24T16:09:06.938Z,82.08
2019-03-24T16:11:33.268Z,80.40
2019-03-24T16:13:59.713Z,69.42
2019-03-24T16:16:26.107Z,68.87
2019-03-24T16:18:53.147Z,69.50
2019-03-24T16:21:27.371Z,67.87
2019-03-24T16:23:47.978Z,67.78
2019-03-24T16:26:14.716Z,68.30
2019-03-24T16:28:41.000Z,71.77
2019-03-24T16:31:07.659Z,78.42
2019-03-24T16:33:34.116Z,67.80
2019-03-24T16:36:00.445Z,68.67
2019-03-24T16:38:27.543Z,71.05
2019-03-24T16:40:54.030Z,67.05
2019-03-24T16:43:21.235Z,71.80
2019-03-24T16:45:47.917Z,77.40
2019-03-24T16:48:14.454Z,87.35
2019-03-24T16:50:40.951Z,75.03
2019-03-24T16:53:07.427Z,77.60
2019-03-24T16:55:33.804Z,71.12
2019-03-24T16:58:00.184Z,72.85
2019-03-24T17:00:27.029Z,75.37
2019-03-24T17:02:53.417Z,69.37
2019-03-24T17:05:20.031Z,68.85
2019-03-24T17:07:46.348Z,73.62
2019-03-24T17:10:13.067Z,70.20
2019-03-24T17:12:39.811Z,74.62
2019-03-24T17:15:07.719Z,69.15
2019-03-24T17:17:34.622Z,143.43
2019-03-24T17:20:01.007Z,166.57
2019-03-24T17:22:27.483Z,100.95
2019-03-24T17:24:53.926Z,118.40
2019-03-24T17:27:22.195Z,192.92
2019-03-24T17:29:48.602Z,231.07
2019-03-24T17:32:15.066Z,273.32
2019-03-24T17:34:41.857Z,358.13
2019-03-24T17:37:08.544Z,295.77
2019-03-24T17:39:34.939Z,255.12
2019-03-24T17:42:01.409Z,275.35
2019-03-24T17:44:27.967Z,170.22
2019-03-24T17:46:54.400Z,173.13
2019-03-24T17:49:20.809Z,177.25
2019-03-24T17:51:47.342Z,168.72
2019-03-24T17:54:13.917Z,171.22
2019-03-24T17:56:40.243Z,179.00
2019-03-24T17:59:06.671Z,204.65
2019-03-24T18:01:33.281Z,192.92
2019-03-24T18:04:00.019Z,153.32
2019-03-24T18:06:26.471Z,245.30
2019-03-24T18:08:53.103Z,221.22
2019-03-24T18:11:19.488Z,214.40
2019-03-24T18:13:45.920Z,160.30
2019-03-24T18:16:13.003Z,172.05
2019-03-24T18:18:39.424Z,238.87
2019-03-24T18:21:05.706Z,318.97
2019-03-24T18:23:32.019Z,271.65
2019-03-24T18:25:58.456Z,185.18
2019-03-24T18:28:24.807Z,155.82
2019-03-24T18:30:51.294Z,160.85
2019-03-24T18:33:17.694Z,157.85
2019-03-24T18:35:44.498Z,162.77
2019-03-24T18:38:11.108Z,164.88
2019-03-24T18:40:37.607Z,161.12
2019-03-24T18:43:04.686Z,161.73
2019-03-24T18:45:31.081Z,155.97
2019-03-24T18:47:57.517Z,164.67
2019-03-24T18:50:23.883Z,162.07
2019-03-24T18:52:50.531Z,149.30
2019-03-24T18:55:17.039Z,152.93
2019-03-24T18:57:43.485Z,164.10
2019-03-24T19:00:12.586Z,141.18
2019-03-24T19:02:38.995Z,223.38
2019-03-24T19:05:07.027Z,237.88
2019-03-24T19:07:33.446Z,174.35
2019-03-24T19:09:59.815Z,156.22
2019-03-24T19:12:26.599Z,156.67
2019-03-24T19:14:52.994Z,163.43
2019-03-24T19:17:19.323Z,163.85
2019-03-24T19:19:45.638Z,168.07
2019-03-24T19:22:11.987Z,143.90
2019-03-24T19:24:38.284Z,203.35
2019-03-24T19:27:04.782Z,162.15
2019-03-24T19:29:31.324Z,159.05
2019-03-24T19:31:57.881Z,178.32
2019-03-24T19:34:24.224Z,176.75
2019-03-24T19:36:50.927Z,162.45
2019-03-24T19:39:17.666Z,165.47
2019-03-24T19:41:44.111Z,171.93
2019-03-24T19:44:10.629Z,156.72
2019-03-24T19:46:37.170Z,169.35
2019-03-24T19:49:03.604Z,213.80
2019-03-24T19:51:30.041Z,211.05
2019-03-24T19:53:56.549Z,223.00
2019-03-24T19:56:22.957Z,245.57
2019-03-24T19:58:49.315Z,225.38
2019-03-24T20:01:15.644Z,184.22
2019-03-24T20:03:43.527Z,159.18
2019-03-24T20:06:10.577Z,166.82
2019-03-24T20:08:36.965Z,148.38
2019-03-24T20:11:03.448Z,148.85
2019-03-24T20:13:30.493Z,147.25
2019-03-24T20:15:56.924Z,159.67
2019-03-24T20:18:23.317Z,141.85
2019-03-24T20:20:51.982Z,131.52
2019-03-24T20:23:18.268Z,153.82
2019-03-24T20:25:45.213Z,152.68
2019-03-24T20:28:11.789Z,169.47
2019-03-24T20:30:38.451Z,163.20
2019-03-24T20:33:05.031Z,140.92
2019-03-24T20:35:31.488Z,118.28
2019-03-24T20:37:57.842Z,102.90
2019-03-24T20:40:24.489Z,99.20
2019-03-24T20:42:51.369Z,98.92
2019-03-24T20:45:18.074Z,100.35
2019-03-24T20:47:44.369Z,102.67
2019-03-24T20:50:11.738Z,104.58
2019-03-24T20:52:38.123Z,104.12
2019-03-24T20:55:05.998Z,105.58
2019-03-24T20:57:32.695Z,102.85
2019-03-24T20:59:59.370Z,99.85
2019-03-24T21:02:25.809Z,98.92
2019-03-24T21:04:52.151Z,103.60
2019-03-24T21:07:18.557Z,91.50
2019-03-24T21:09:46.570Z,92.22
2019-03-24T21:12:13.051Z,84.32
2019-03-24T21:14:39.357Z,81.02
2019-03-24T21:17:05.847Z,69.37
2019-03-24T21:19:32.375Z,86.60
2019-03-24T21:21:58.783Z,85.10
2019-03-24T21:24:25.230Z,84.28
2019-03-24T21:26:51.706Z,90.35
2019-03-24T21:29:18.203Z,91.47
2019-03-24T21:31:44.597Z,89.03
2019-03-24T21:34:11.074Z,98.05
2019-03-24T21:36:37.809Z,108.57
2019-03-24T21:39:06.439Z,94.72
2019-03-24T21:41:32.833Z,94.40
2019-03-24T21:43:59.258Z,72.22
2019-03-24T21:46:25.581Z,79.10
2019-03-24T21:48:52.226Z,79.32
2019-03-24T21:51:18.626Z,83.75
2019-03-24T21:53:45.097Z,87.25
2019-03-24T21:56:14.103Z,88.92
2019-03-24T21:58:40.253Z,75.80
2019-03-24T22:01:07.112Z,81.35
2019-03-24T22:03:33.692Z,72.85
2019-03-24T22:06:00.181Z,79.55
2019-03-24T22:08:26.621Z,83.47
2019-03-24T22:10:53.008Z,78.57
2019-03-24T22:13:19.711Z,76.97
2019-03-24T22:15:46.098Z,79.70
2019-03-24T22:18:12.691Z,83.35
2019-03-24T22:20:48.414Z,80.65
2019-03-24T22:23:07.558Z,77.67
2019-03-24T22:25:33.942Z,80.55
2019-03-24T22:28:00.559Z,70.45
2019-03-24T22:30:29.207Z,66.75
2019-03-24T22:32:55.697Z,63.40
2019-03-24T22:35:22.083Z,62.03
2019-03-24T22:37:48.583Z,55.38
2019-03-24T22:40:15.184Z,55.85
2019-03-24T22:42:41.756Z,55.73
2019-03-24T22:45:09.151Z,63.52
2019-03-24T22:47:35.638Z,62.80
2019-03-24T22:50:06.928Z,64.25
2019-03-24T22:52:33.413Z,67.10
2019-03-24T22:55:00.328Z,61.70
2019-03-24T22:57:26.887Z,63.28
2019-03-24T22:59:53.321Z,59.98
2019-03-24T23:02:19.998Z,60.30
2019-03-24T23:04:46.368Z,61.05
2019-03-24T23:07:12.810Z,61.48
2019-03-24T23:09:39.359Z,68.40
2019-03-24T23:12:05.951Z,62.35
2019-03-24T23:14:32.635Z,66.00
2019-03-24T23:16:59.032Z,75.50
2019-03-24T23:19:25.501Z,68.83
2019-03-24T23:21:51.946Z,69.55
2019-03-24T23:24:18.379Z,75.55
2019-03-24T23:26:44.897Z,70.85
2019-03-24T23:29:11.487Z,69.65
2019-03-24T23:31:38.182Z,70.50
2019-03-24T23:34:05.599Z,71.07
2019-03-24T23:36:32.002Z,65.15
2019-03-24T23:38:58.426Z,68.60
2019-03-24T23:41:24.828Z,79.65
2019-03-24T23:43:51.164Z,79.20
2019-03-24T23:46:17.805Z,83.52
2019-03-24T23:48:44.222Z,88.07
2019-03-24T23:51:10.622Z,88.37
2019-03-24T23:53:37.097Z,96.28
2019-03-24T23:56:03.497Z,86.67
2019-03-24T23:58:40.353Z,89.95
